sensor_id;sensor_type;location;lat;lon;timestamp;P1;durP1;ratioP1;P2;durP2;ratioP2
27265;SDS011;14766;51.380;13.762;2022-12-18T00:01:25;27.20;;;14.38;;
27265;SDS011;14766;51.380;13.762;2022-12-18T00:03:55;30.48;;;13.65;;
27265;SDS011;14766;51.380;13.762;2022-12-18T00:06:23;28.25;;;13.30;;
27265;SDS011;14766;51.380;13.762;2022-12-18T00:08:52;25.70;;;13.40;;
27265;SDS011;14766;51.380;13.762;2022-12-18T00:11:21;25.23;;;12.57;;
27265;SDS011;14766;51.380;13.762;2022-12-18T00:13:49;26.52;;;12.95;;
27265;SDS011;14766;51.380;13.762;2022-12-18T00:16:18;27.30;;;14.30;;
27265;SDS011;14766;51.380;13.762;2022-12-18T00:18:48;29.50;;;13.95;;
27265;SDS011;14766;51.380;13.762;2022-12-18T00:21:16;25.70;;;13.38;;
27265;SDS011;14766;51.380;13.762;2022-12-18T00:23:44;27.63;;;14.35;;
27265;SDS011;14766;51.380;13.762;2022-12-18T00:26:15;29.60;;;14.35;;
27265;SDS011;14766;51.380;13.762;2022-12-18T00:28:51;26.27;;;12.85;;
27265;SDS011;14766;51.380;13.762;2022-12-18T00:31:20;30.65;;;13.95;;
27265;SDS011;14766;51.380;13.762;2022-12-18T00:33:51;29.95;;;14.40;;
27265;SDS011;14766;51.380;13.762;2022-12-18T00:36:28;30.58;;;15.20;;
27265;SDS011;14766;51.380;13.762;2022-12-18T00:38:58;26.33;;;13.13;;
27265;SDS011;14766;51.380;13.762;2022-12-18T00:41:28;25.42;;;12.85;;
27265;SDS011;14766;51.380;13.762;2022-12-18T00:44:21;25.27;;;13.20;;
27265;SDS011;14766;51.380;13.762;2022-12-18T00:46:49;28.67;;;13.93;;
27265;SDS011;14766;51.380;13.762;2022-12-18T00:49:17;29.20;;;14.00;;
27265;SDS011;14766;51.380;13.762;2022-12-18T00:51:46;30.60;;;14.85;;
27265;SDS011;14766;51.380;13.762;2022-12-18T00:54:13;29.88;;;14.90;;
27265;SDS011;14766;51.380;13.762;2022-12-18T00:56:41;29.33;;;15.10;;
27265;SDS011;14766;51.380;13.762;2022-12-18T00:59:18;30.70;;;15.00;;
27265;SDS011;14766;51.380;13.762;2022-12-18T01:01:46;30.45;;;14.75;;
27265;SDS011;14766;51.380;13.762;2022-12-18T01:04:13;32.42;;;15.25;;
27265;SDS011;14766;51.380;13.762;2022-12-18T01:06:44;26.70;;;13.05;;
27265;SDS011;14766;51.380;13.762;2022-12-18T01:09:11;28.70;;;14.57;;
27265;SDS011;14766;51.380;13.762;2022-12-18T01:11:38;28.42;;;14.27;;
27265;SDS011;14766;51.380;13.762;2022-12-18T01:14:06;35.55;;;15.98;;
27265;SDS011;14766;51.380;13.762;2022-12-18T01:16:36;29.10;;;14.50;;
27265;SDS011;14766;51.380;13.762;2022-12-18T01:19:04;26.45;;;14.23;;
27265;SDS011;14766;51.380;13.762;2022-12-18T01:21:31;31.77;;;16.02;;
27265;SDS011;14766;51.380;13.762;2022-12-18T01:24:03;33.03;;;15.25;;
27265;SDS011;14766;51.380;13.762;2022-12-18T01:26:31;30.02;;;15.25;;
27265;SDS011;14766;51.380;13.762;2022-12-18T01:28:58;28.05;;;14.18;;
27265;SDS011;14766;51.380;13.762;2022-12-18T01:31:26;32.70;;;15.13;;
27265;SDS011;14766;51.380;13.762;2022-12-18T01:33:56;32.15;;;14.75;;
27265;SDS011;14766;51.380;13.762;2022-12-18T01:36:24;26.92;;;13.25;;
27265;SDS011;14766;51.380;13.762;2022-12-18T01:38:56;28.45;;;13.85;;
27265;SDS011;14766;51.380;13.762;2022-12-18T01:41:27;29.70;;;13.80;;
27265;SDS011;14766;51.380;13.762;2022-12-18T01:47:24;26.88;;;13.80;;
27265;SDS011;14766;51.380;13.762;2022-12-18T01:50:05;35.10;;;16.80;;
27265;SDS011;14766;51.380;13.762;2022-12-18T01:52:39;34.28;;;16.20;;
27265;SDS011;14766;51.380;13.762;2022-12-18T01:55:08;29.73;;;14.50;;
27265;SDS011;14766;51.380;13.762;2022-12-18T01:57:37;38.42;;;17.40;;
27265;SDS011;14766;51.380;13.762;2022-12-18T02:00:09;31.63;;;15.95;;
27265;SDS011;14766;51.380;13.762;2022-12-18T02:02:40;30.85;;;15.68;;
27265;SDS011;14766;51.380;13.762;2022-12-18T02:05:10;32.10;;;15.02;;
27265;SDS011;14766;51.380;13.762;2022-12-18T02:12:45;31.52;;;15.20;;
27265;SDS011;14766;51.380;13.762;2022-12-18T02:18:27;31.95;;;14.77;;
27265;SDS011;14766;51.380;13.762;2022-12-18T02:21:01;28.15;;;13.82;;
27265;SDS011;14766;51.380;13.762;2022-12-18T02:26:53;31.27;;;15.88;;
27265;SDS011;14766;51.380;13.762;2022-12-18T02:29:25;39.28;;;16.70;;
27265;SDS011;14766;51.380;13.762;2022-12-18T02:32:12;39.15;;;18.08;;
27265;SDS011;14766;51.380;13.762;2022-12-18T02:34:43;38.00;;;17.17;;
27265;SDS011;14766;51.380;13.762;2022-12-18T02:37:14;40.15;;;18.52;;
27265;SDS011;14766;51.380;13.762;2022-12-18T02:39:44;40.80;;;19.27;;
27265;SDS011;14766;51.380;13.762;2022-12-18T02:42:15;38.75;;;17.77;;
27265;SDS011;14766;51.380;13.762;2022-12-18T02:44:44;33.95;;;15.43;;
27265;SDS011;14766;51.380;13.762;2022-12-18T02:47:17;35.05;;;17.17;;
27265;SDS011;14766;51.380;13.762;2022-12-18T02:53:00;36.90;;;16.48;;
27265;SDS011;14766;51.380;13.762;2022-12-18T02:55:53;42.38;;;18.13;;
27265;SDS011;14766;51.380;13.762;2022-12-18T03:01:33;37.80;;;16.90;;
27265;SDS011;14766;51.380;13.762;2022-12-18T03:04:25;37.22;;;17.98;;
27265;SDS011;14766;51.380;13.762;2022-12-18T03:06:58;39.00;;;17.42;;
27265;SDS011;14766;51.380;13.762;2022-12-18T03:09:54;34.67;;;17.45;;
27265;SDS011;14766;51.380;13.762;2022-12-18T03:12:30;36.83;;;17.60;;
27265;SDS011;14766;51.380;13.762;2022-12-18T03:15:12;33.65;;;16.30;;
27265;SDS011;14766;51.380;13.762;2022-12-18T03:17:51;36.95;;;16.42;;
27265;SDS011;14766;51.380;13.762;2022-12-18T03:20:25;37.78;;;16.08;;
27265;SDS011;14766;51.380;13.762;2022-12-18T03:22:57;37.08;;;16.80;;
27265;SDS011;14766;51.380;13.762;2022-12-18T03:25:29;38.17;;;16.60;;
27265;SDS011;14766;51.380;13.762;2022-12-18T03:27:58;37.35;;;17.13;;
27265;SDS011;14766;51.380;13.762;2022-12-18T03:30:28;34.85;;;16.95;;
27265;SDS011;14766;51.380;13.762;2022-12-18T03:33:01;35.67;;;16.85;;
27265;SDS011;14766;51.380;13.762;2022-12-18T03:35:37;32.55;;;15.07;;
27265;SDS011;14766;51.380;13.762;2022-12-18T03:38:11;37.42;;;17.40;;
27265;SDS011;14766;51.380;13.762;2022-12-18T03:48:02;38.40;;;17.17;;
27265;SDS011;14766;51.380;13.762;2022-12-18T03:50:45;42.90;;;19.25;;
27265;SDS011;14766;51.380;13.762;2022-12-18T03:57:00;40.78;;;17.08;;
27265;SDS011;14766;51.380;13.762;2022-12-18T03:59:34;46.33;;;18.67;;
27265;SDS011;14766;51.380;13.762;2022-12-18T04:02:03;38.13;;;16.70;;
27265;SDS011;14766;51.380;13.762;2022-12-18T04:04:34;38.50;;;17.25;;
27265;SDS011;14766;51.380;13.762;2022-12-18T04:07:03;37.75;;;16.90;;
27265;SDS011;14766;51.380;13.762;2022-12-18T04:09:33;37.85;;;17.05;;
27265;SDS011;14766;51.380;13.762;2022-12-18T04:12:04;31.60;;;14.35;;
27265;SDS011;14766;51.380;13.762;2022-12-18T04:14:31;32.13;;;15.50;;
27265;SDS011;14766;51.380;13.762;2022-12-18T04:17:04;44.88;;;18.40;;
27265;SDS011;14766;51.380;13.762;2022-12-18T04:19:38;38.00;;;16.58;;
27265;SDS011;14766;51.380;13.762;2022-12-18T04:22:20;38.30;;;15.60;;
27265;SDS011;14766;51.380;13.762;2022-12-18T04:25:01;28.23;;;13.40;;
27265;SDS011;14766;51.380;13.762;2022-12-18T04:27:35;40.08;;;16.92;;
27265;SDS011;14766;51.380;13.762;2022-12-18T04:30:03;32.80;;;14.88;;
27265;SDS011;14766;51.380;13.762;2022-12-18T04:32:33;33.40;;;14.85;;
27265;SDS011;14766;51.380;13.762;2022-12-18T04:35:00;33.53;;;15.93;;
27265;SDS011;14766;51.380;13.762;2022-12-18T04:37:31;34.75;;;15.02;;
27265;SDS011;14766;51.380;13.762;2022-12-18T04:40:11;36.85;;;14.95;;
27265;SDS011;14766;51.380;13.762;2022-12-18T04:43:12;37.83;;;15.43;;
27265;SDS011;14766;51.380;13.762;2022-12-18T04:46:05;35.58;;;15.27;;
27265;SDS011;14766;51.380;13.762;2022-12-18T04:48:33;34.10;;;14.93;;
27265;SDS011;14766;51.380;13.762;2022-12-18T04:51:11;41.15;;;17.83;;
27265;SDS011;14766;51.380;13.762;2022-12-18T04:53:52;36.28;;;16.75;;
27265;SDS011;14766;51.380;13.762;2022-12-18T04:56:19;36.08;;;16.33;;
27265;SDS011;14766;51.380;13.762;2022-12-18T04:58:46;33.50;;;14.55;;
27265;SDS011;14766;51.380;13.762;2022-12-18T05:01:15;37.67;;;15.88;;
27265;SDS011;14766;51.380;13.762;2022-12-18T05:03:43;38.92;;;17.67;;
27265;SDS011;14766;51.380;13.762;2022-12-18T05:06:16;31.67;;;14.35;;
27265;SDS011;14766;51.380;13.762;2022-12-18T05:08:49;30.77;;;14.70;;
27265;SDS011;14766;51.380;13.762;2022-12-18T05:11:16;33.00;;;14.40;;
27265;SDS011;14766;51.380;13.762;2022-12-18T05:13:44;29.35;;;14.85;;
27265;SDS011;14766;51.380;13.762;2022-12-18T05:16:12;30.52;;;14.20;;
27265;SDS011;14766;51.380;13.762;2022-12-18T05:18:40;31.08;;;15.07;;
27265;SDS011;14766;51.380;13.762;2022-12-18T05:21:08;32.75;;;14.18;;
27265;SDS011;14766;51.380;13.762;2022-12-18T05:23:35;30.17;;;13.40;;
27265;SDS011;14766;51.380;13.762;2022-12-18T05:26:04;27.95;;;13.00;;
27265;SDS011;14766;51.380;13.762;2022-12-18T05:28:33;30.40;;;14.07;;
27265;SDS011;14766;51.380;13.762;2022-12-18T05:31:02;35.30;;;15.38;;
27265;SDS011;14766;51.380;13.762;2022-12-18T05:33:32;33.38;;;13.98;;
27265;SDS011;14766;51.380;13.762;2022-12-18T05:36:01;38.60;;;15.45;;
27265;SDS011;14766;51.380;13.762;2022-12-18T05:38:30;27.80;;;12.65;;
27265;SDS011;14766;51.380;13.762;2022-12-18T05:40:57;35.75;;;15.15;;
27265;SDS011;14766;51.380;13.762;2022-12-18T05:43:25;32.65;;;13.63;;
27265;SDS011;14766;51.380;13.762;2022-12-18T05:45:53;34.13;;;15.15;;
27265;SDS011;14766;51.380;13.762;2022-12-18T05:48:20;31.52;;;13.45;;
27265;SDS011;14766;51.380;13.762;2022-12-18T05:50:48;31.35;;;13.35;;
27265;SDS011;14766;51.380;13.762;2022-12-18T05:53:17;30.17;;;14.05;;
27265;SDS011;14766;51.380;13.762;2022-12-18T05:55:45;31.65;;;14.57;;
27265;SDS011;14766;51.380;13.762;2022-12-18T05:58:13;30.90;;;13.23;;
27265;SDS011;14766;51.380;13.762;2022-12-18T06:00:42;33.50;;;13.65;;
27265;SDS011;14766;51.380;13.762;2022-12-18T06:03:11;35.65;;;15.80;;
27265;SDS011;14766;51.380;13.762;2022-12-18T06:05:43;41.00;;;17.48;;
27265;SDS011;14766;51.380;13.762;2022-12-18T06:08:12;33.15;;;15.13;;
27265;SDS011;14766;51.380;13.762;2022-12-18T06:10:40;34.95;;;15.07;;
27265;SDS011;14766;51.380;13.762;2022-12-18T06:13:08;38.88;;;15.73;;
27265;SDS011;14766;51.380;13.762;2022-12-18T06:15:36;34.55;;;14.82;;
27265;SDS011;14766;51.380;13.762;2022-12-18T06:18:03;40.60;;;16.80;;
27265;SDS011;14766;51.380;13.762;2022-12-18T06:20:30;37.92;;;15.65;;
27265;SDS011;14766;51.380;13.762;2022-12-18T06:22:59;34.45;;;15.43;;
27265;SDS011;14766;51.380;13.762;2022-12-18T06:25:26;34.00;;;15.70;;
27265;SDS011;14766;51.380;13.762;2022-12-18T06:27:54;32.15;;;13.98;;
27265;SDS011;14766;51.380;13.762;2022-12-18T06:30:21;38.15;;;16.05;;
27265;SDS011;14766;51.380;13.762;2022-12-18T06:32:49;30.75;;;13.95;;
27265;SDS011;14766;51.380;13.762;2022-12-18T06:35:22;29.67;;;14.82;;
27265;SDS011;14766;51.380;13.762;2022-12-18T06:37:50;28.38;;;13.73;;
27265;SDS011;14766;51.380;13.762;2022-12-18T06:40:17;34.40;;;13.35;;
27265;SDS011;14766;51.380;13.762;2022-12-18T06:42:45;30.95;;;14.27;;
27265;SDS011;14766;51.380;13.762;2022-12-18T06:45:12;28.77;;;12.80;;
27265;SDS011;14766;51.380;13.762;2022-12-18T06:47:39;28.75;;;12.95;;
27265;SDS011;14766;51.380;13.762;2022-12-18T06:50:07;26.08;;;13.23;;
27265;SDS011;14766;51.380;13.762;2022-12-18T06:52:34;27.25;;;12.10;;
27265;SDS011;14766;51.380;13.762;2022-12-18T06:55:01;29.85;;;13.90;;
27265;SDS011;14766;51.380;13.762;2022-12-18T06:57:28;29.65;;;13.93;;
27265;SDS011;14766;51.380;13.762;2022-12-18T06:59:58;25.30;;;12.35;;
27265;SDS011;14766;51.380;13.762;2022-12-18T07:02:25;29.65;;;13.02;;
27265;SDS011;14766;51.380;13.762;2022-12-18T07:04:52;31.05;;;14.07;;
27265;SDS011;14766;51.380;13.762;2022-12-18T07:07:20;32.85;;;13.77;;
27265;SDS011;14766;51.380;13.762;2022-12-18T07:09:49;29.15;;;13.75;;
27265;SDS011;14766;51.380;13.762;2022-12-18T07:12:16;28.70;;;13.93;;
27265;SDS011;14766;51.380;13.762;2022-12-18T07:14:43;29.60;;;13.05;;
27265;SDS011;14766;51.380;13.762;2022-12-18T07:17:10;27.38;;;13.25;;
27265;SDS011;14766;51.380;13.762;2022-12-18T07:19:37;28.95;;;12.63;;
27265;SDS011;14766;51.380;13.762;2022-12-18T07:22:04;30.52;;;13.65;;
27265;SDS011;14766;51.380;13.762;2022-12-18T07:24:32;27.38;;;13.07;;
27265;SDS011;14766;51.380;13.762;2022-12-18T07:27:01;26.48;;;13.35;;
27265;SDS011;14766;51.380;13.762;2022-12-18T07:29:28;29.27;;;13.77;;
27265;SDS011;14766;51.380;13.762;2022-12-18T07:31:55;29.50;;;14.38;;
27265;SDS011;14766;51.380;13.762;2022-12-18T07:34:22;30.17;;;13.90;;
27265;SDS011;14766;51.380;13.762;2022-12-18T07:36:49;29.88;;;13.50;;
27265;SDS011;14766;51.380;13.762;2022-12-18T07:39:17;29.35;;;13.27;;
27265;SDS011;14766;51.380;13.762;2022-12-18T07:41:44;33.30;;;15.27;;
27265;SDS011;14766;51.380;13.762;2022-12-18T07:44:34;37.45;;;16.27;;
27265;SDS011;14766;51.380;13.762;2022-12-18T07:47:01;34.80;;;15.77;;
27265;SDS011;14766;51.380;13.762;2022-12-18T07:49:34;36.38;;;18.00;;
27265;SDS011;14766;51.380;13.762;2022-12-18T07:52:01;32.53;;;15.50;;
27265;SDS011;14766;51.380;13.762;2022-12-18T07:54:28;39.83;;;20.33;;
27265;SDS011;14766;51.380;13.762;2022-12-18T07:56:55;39.25;;;20.88;;
27265;SDS011;14766;51.380;13.762;2022-12-18T07:59:23;38.80;;;17.80;;
27265;SDS011;14766;51.380;13.762;2022-12-18T08:01:50;33.95;;;16.27;;
27265;SDS011;14766;51.380;13.762;2022-12-18T08:04:17;33.17;;;14.25;;
27265;SDS011;14766;51.380;13.762;2022-12-18T08:06:44;30.13;;;14.45;;
27265;SDS011;14766;51.380;13.762;2022-12-18T08:09:13;30.85;;;14.52;;
27265;SDS011;14766;51.380;13.762;2022-12-18T08:11:40;29.45;;;13.40;;
27265;SDS011;14766;51.380;13.762;2022-12-18T08:14:07;25.75;;;13.38;;
27265;SDS011;14766;51.380;13.762;2022-12-18T08:16:35;30.05;;;13.52;;
27265;SDS011;14766;51.380;13.762;2022-12-18T08:19:02;29.10;;;13.27;;
27265;SDS011;14766;51.380;13.762;2022-12-18T08:21:30;31.80;;;13.77;;
27265;SDS011;14766;51.380;13.762;2022-12-18T08:23:58;30.90;;;13.57;;
27265;SDS011;14766;51.380;13.762;2022-12-18T08:26:27;29.23;;;13.38;;
27265;SDS011;14766;51.380;13.762;2022-12-18T08:28:57;28.73;;;13.32;;
27265;SDS011;14766;51.380;13.762;2022-12-18T08:31:26;29.80;;;16.17;;
27265;SDS011;14766;51.380;13.762;2022-12-18T08:33:54;30.95;;;15.95;;
27265;SDS011;14766;51.380;13.762;2022-12-18T08:36:23;28.10;;;14.85;;
27265;SDS011;14766;51.380;13.762;2022-12-18T08:38:51;32.10;;;16.55;;
27265;SDS011;14766;51.380;13.762;2022-12-18T08:41:19;28.67;;;16.38;;
27265;SDS011;14766;51.380;13.762;2022-12-18T08:43:46;27.50;;;15.43;;
27265;SDS011;14766;51.380;13.762;2022-12-18T08:46:36;27.93;;;16.00;;
27265;SDS011;14766;51.380;13.762;2022-12-18T08:49:05;27.30;;;15.15;;
27265;SDS011;14766;51.380;13.762;2022-12-18T08:51:33;25.88;;;14.70;;
27265;SDS011;14766;51.380;13.762;2022-12-18T08:54:01;27.40;;;15.30;;
27265;SDS011;14766;51.380;13.762;2022-12-18T08:56:31;27.85;;;14.88;;
27265;SDS011;14766;51.380;13.762;2022-12-18T08:58:59;30.30;;;15.80;;
27265;SDS011;14766;51.380;13.762;2022-12-18T09:01:27;29.73;;;15.93;;
27265;SDS011;14766;51.380;13.762;2022-12-18T09:03:54;33.55;;;18.05;;
27265;SDS011;14766;51.380;13.762;2022-12-18T09:06:22;35.42;;;18.65;;
27265;SDS011;14766;51.380;13.762;2022-12-18T09:08:49;37.05;;;19.63;;
27265;SDS011;14766;51.380;13.762;2022-12-18T09:11:21;34.65;;;17.08;;
27265;SDS011;14766;51.380;13.762;2022-12-18T09:13:51;26.55;;;15.82;;
27265;SDS011;14766;51.380;13.762;2022-12-18T09:16:19;26.63;;;15.40;;
27265;SDS011;14766;51.380;13.762;2022-12-18T09:18:51;29.45;;;16.27;;
27265;SDS011;14766;51.380;13.762;2022-12-18T09:21:26;31.27;;;16.90;;
27265;SDS011;14766;51.380;13.762;2022-12-18T09:23:56;26.10;;;15.15;;
27265;SDS011;14766;51.380;13.762;2022-12-18T09:26:23;29.55;;;16.83;;
27265;SDS011;14766;51.380;13.762;2022-12-18T09:28:52;26.77;;;16.52;;
27265;SDS011;14766;51.380;13.762;2022-12-18T09:31:22;25.73;;;15.68;;
27265;SDS011;14766;51.380;13.762;2022-12-18T09:33:50;26.35;;;15.25;;
27265;SDS011;14766;51.380;13.762;2022-12-18T09:36:18;25.45;;;14.68;;
27265;SDS011;14766;51.380;13.762;2022-12-18T09:38:47;23.92;;;14.13;;
27265;SDS011;14766;51.380;13.762;2022-12-18T09:41:32;24.38;;;14.07;;
27265;SDS011;14766;51.380;13.762;2022-12-18T09:44:05;21.57;;;12.60;;
27265;SDS011;14766;51.380;13.762;2022-12-18T09:46:37;21.60;;;13.45;;
27265;SDS011;14766;51.380;13.762;2022-12-18T09:49:09;20.25;;;13.15;;
27265;SDS011;14766;51.380;13.762;2022-12-18T09:51:50;20.77;;;12.30;;
27265;SDS011;14766;51.380;13.762;2022-12-18T09:54:25;19.65;;;11.85;;
27265;SDS011;14766;51.380;13.762;2022-12-18T09:56:59;23.85;;;12.30;;
27265;SDS011;14766;51.380;13.762;2022-12-18T09:59:37;20.50;;;11.45;;
27265;SDS011;14766;51.380;13.762;2022-12-18T10:02:25;19.95;;;11.73;;
27265;SDS011;14766;51.380;13.762;2022-12-18T10:04:56;18.88;;;11.02;;
27265;SDS011;14766;51.380;13.762;2022-12-18T10:07:35;20.45;;;12.02;;
27265;SDS011;14766;51.380;13.762;2022-12-18T10:10:14;18.73;;;11.48;;
27265;SDS011;14766;51.380;13.762;2022-12-18T10:12:53;19.75;;;11.02;;
27265;SDS011;14766;51.380;13.762;2022-12-18T10:15:50;20.42;;;12.90;;
27265;SDS011;14766;51.380;13.762;2022-12-18T10:24:13;18.70;;;10.57;;
27265;SDS011;14766;51.380;13.762;2022-12-18T10:26:42;20.80;;;11.70;;
27265;SDS011;14766;51.380;13.762;2022-12-18T10:29:13;22.30;;;12.00;;
27265;SDS011;14766;51.380;13.762;2022-12-18T10:31:43;19.83;;;11.90;;
27265;SDS011;14766;51.380;13.762;2022-12-18T10:34:11;19.27;;;11.38;;
27265;SDS011;14766;51.380;13.762;2022-12-18T10:36:42;21.83;;;11.82;;
27265;SDS011;14766;51.380;13.762;2022-12-18T10:39:20;22.63;;;12.57;;
27265;SDS011;14766;51.380;13.762;2022-12-18T10:41:49;19.42;;;10.77;;
27265;SDS011;14766;51.380;13.762;2022-12-18T10:44:20;20.80;;;11.23;;
27265;SDS011;14766;51.380;13.762;2022-12-18T10:46:55;19.08;;;11.43;;
27265;SDS011;14766;51.380;13.762;2022-12-18T10:49:36;24.25;;;11.90;;
27265;SDS011;14766;51.380;13.762;2022-12-18T10:52:18;19.50;;;11.70;;
27265;SDS011;14766;51.380;13.762;2022-12-18T10:55:01;22.27;;;12.02;;
27265;SDS011;14766;51.380;13.762;2022-12-18T10:57:32;22.30;;;11.48;;
27265;SDS011;14766;51.380;13.762;2022-12-18T11:00:24;20.40;;;11.57;;
27265;SDS011;14766;51.380;13.762;2022-12-18T11:02:56;23.38;;;12.95;;
27265;SDS011;14766;51.380;13.762;2022-12-18T11:07:59;20.97;;;11.70;;
27265;SDS011;14766;51.380;13.762;2022-12-18T11:10:36;20.50;;;11.27;;
27265;SDS011;14766;51.380;13.762;2022-12-18T11:13:15;20.80;;;11.60;;
27265;SDS011;14766;51.380;13.762;2022-12-18T11:15:44;24.60;;;12.82;;
27265;SDS011;14766;51.380;13.762;2022-12-18T11:18:24;22.23;;;12.50;;
27265;SDS011;14766;51.380;13.762;2022-12-18T11:20:53;25.15;;;13.35;;
27265;SDS011;14766;51.380;13.762;2022-12-18T11:23:25;27.05;;;13.32;;
27265;SDS011;14766;51.380;13.762;2022-12-18T11:26:03;24.13;;;12.52;;
27265;SDS011;14766;51.380;13.762;2022-12-18T11:31:27;22.67;;;12.73;;
27265;SDS011;14766;51.380;13.762;2022-12-18T11:33:59;24.50;;;12.15;;
27265;SDS011;14766;51.380;13.762;2022-12-18T11:36:47;24.45;;;11.95;;
27265;SDS011;14766;51.380;13.762;2022-12-18T11:39:31;20.58;;;11.30;;
27265;SDS011;14766;51.380;13.762;2022-12-18T11:53:13;23.48;;;12.68;;
27265;SDS011;14766;51.380;13.762;2022-12-18T12:01:10;19.40;;;11.43;;
27265;SDS011;14766;51.380;13.762;2022-12-18T12:04:10;21.25;;;11.05;;
27265;SDS011;14766;51.380;13.762;2022-12-18T12:20:58;20.45;;;11.18;;
27265;SDS011;14766;51.380;13.762;2022-12-18T12:23:49;20.20;;;11.45;;
27265;SDS011;14766;51.380;13.762;2022-12-18T12:39:49;24.42;;;12.18;;
27265;SDS011;14766;51.380;13.762;2022-12-18T12:42:41;25.52;;;12.27;;
27265;SDS011;14766;51.380;13.762;2022-12-18T12:45:40;23.70;;;11.27;;
27265;SDS011;14766;51.380;13.762;2022-12-18T12:48:55;24.00;;;12.70;;
27265;SDS011;14766;51.380;13.762;2022-12-18T12:51:18;24.75;;;12.52;;
27265;SDS011;14766;51.380;13.762;2022-12-18T12:53:52;20.17;;;10.38;;
27265;SDS011;14766;51.380;13.762;2022-12-18T12:56:22;23.42;;;11.18;;
27265;SDS011;14766;51.380;13.762;2022-12-18T13:01:57;19.45;;;10.70;;
27265;SDS011;14766;51.380;13.762;2022-12-18T13:07:31;24.27;;;12.35;;
27265;SDS011;14766;51.380;13.762;2022-12-18T13:28:53;24.58;;;11.48;;
27265;SDS011;14766;51.380;13.762;2022-12-18T13:34:25;23.45;;;10.80;;
27265;SDS011;14766;51.380;13.762;2022-12-18T13:36:57;22.75;;;11.32;;
27265;SDS011;14766;51.380;13.762;2022-12-18T13:48:27;22.92;;;10.85;;
27265;SDS011;14766;51.380;13.762;2022-12-18T13:51:00;25.30;;;11.70;;
27265;SDS011;14766;51.380;13.762;2022-12-18T13:53:35;22.00;;;10.73;;
27265;SDS011;14766;51.380;13.762;2022-12-18T13:56:17;21.55;;;12.00;;
27265;SDS011;14766;51.380;13.762;2022-12-18T14:02:09;24.55;;;11.00;;
27265;SDS011;14766;51.380;13.762;2022-12-18T14:04:37;22.55;;;10.45;;
27265;SDS011;14766;51.380;13.762;2022-12-18T14:07:19;23.23;;;11.20;;
27265;SDS011;14766;51.380;13.762;2022-12-18T14:09:55;22.10;;;12.23;;
27265;SDS011;14766;51.380;13.762;2022-12-18T14:12:48;28.08;;;13.55;;
27265;SDS011;14766;51.380;13.762;2022-12-18T14:15:36;24.75;;;11.10;;
27265;SDS011;14766;51.380;13.762;2022-12-18T14:20:53;22.30;;;11.48;;
27265;SDS011;14766;51.380;13.762;2022-12-18T14:23:34;22.45;;;11.23;;
27265;SDS011;14766;51.380;13.762;2022-12-18T14:26:02;23.35;;;10.75;;
27265;SDS011;14766;51.380;13.762;2022-12-18T14:28:46;22.60;;;10.77;;
27265;SDS011;14766;51.380;13.762;2022-12-18T14:31:21;20.98;;;11.15;;
27265;SDS011;14766;51.380;13.762;2022-12-18T14:33:50;23.48;;;12.13;;
27265;SDS011;14766;51.380;13.762;2022-12-18T14:36:20;22.88;;;11.13;;
27265;SDS011;14766;51.380;13.762;2022-12-18T14:38:53;23.40;;;10.80;;
27265;SDS011;14766;51.380;13.762;2022-12-18T14:41:22;23.08;;;10.50;;
27265;SDS011;14766;51.380;13.762;2022-12-18T14:43:51;24.15;;;11.05;;
27265;SDS011;14766;51.380;13.762;2022-12-18T14:49:04;20.98;;;10.18;;
27265;SDS011;14766;51.380;13.762;2022-12-18T14:51:48;19.23;;;9.45;;
27265;SDS011;14766;51.380;13.762;2022-12-18T14:54:18;18.83;;;9.32;;
27265;SDS011;14766;51.380;13.762;2022-12-18T14:56:48;20.52;;;9.95;;
27265;SDS011;14766;51.380;13.762;2022-12-18T14:59:23;22.27;;;10.43;;
27265;SDS011;14766;51.380;13.762;2022-12-18T15:04:45;23.48;;;9.88;;
27265;SDS011;14766;51.380;13.762;2022-12-18T15:07:20;20.85;;;9.85;;
27265;SDS011;14766;51.380;13.762;2022-12-18T15:12:39;24.90;;;10.45;;
27265;SDS011;14766;51.380;13.762;2022-12-18T15:18:18;16.70;;;7.68;;
27265;SDS011;14766;51.380;13.762;2022-12-18T15:20:54;16.42;;;8.02;;
27265;SDS011;14766;51.380;13.762;2022-12-18T15:23:27;18.67;;;9.32;;
27265;SDS011;14766;51.380;13.762;2022-12-18T15:26:01;19.75;;;9.13;;
27265;SDS011;14766;51.380;13.762;2022-12-18T15:33:37;22.45;;;10.43;;
27265;SDS011;14766;51.380;13.762;2022-12-18T15:36:10;23.48;;;11.02;;
27265;SDS011;14766;51.380;13.762;2022-12-18T15:38:40;23.40;;;10.98;;
27265;SDS011;14766;51.380;13.762;2022-12-18T15:41:14;25.52;;;11.80;;
27265;SDS011;14766;51.380;13.762;2022-12-18T15:43:50;22.38;;;9.93;;
27265;SDS011;14766;51.380;13.762;2022-12-18T15:46:19;21.65;;;9.93;;
27265;SDS011;14766;51.380;13.762;2022-12-18T15:48:55;23.10;;;10.68;;
27265;SDS011;14766;51.380;13.762;2022-12-18T15:51:32;17.63;;;8.80;;
27265;SDS011;14766;51.380;13.762;2022-12-18T15:54:03;25.63;;;10.75;;
27265;SDS011;14766;51.380;13.762;2022-12-18T15:56:32;22.02;;;10.32;;
27265;SDS011;14766;51.380;13.762;2022-12-18T15:59:19;20.27;;;9.25;;
27265;SDS011;14766;51.380;13.762;2022-12-18T16:01:48;21.55;;;10.63;;
27265;SDS011;14766;51.380;13.762;2022-12-18T16:04:18;21.55;;;10.13;;
27265;SDS011;14766;51.380;13.762;2022-12-18T16:06:50;22.73;;;9.52;;
27265;SDS011;14766;51.380;13.762;2022-12-18T16:09:38;19.30;;;9.77;;
27265;SDS011;14766;51.380;13.762;2022-12-18T16:12:06;20.73;;;9.35;;
27265;SDS011;14766;51.380;13.762;2022-12-18T16:14:44;20.55;;;9.82;;
27265;SDS011;14766;51.380;13.762;2022-12-18T16:17:11;21.55;;;10.10;;
27265;SDS011;14766;51.380;13.762;2022-12-18T16:19:39;21.80;;;9.90;;
27265;SDS011;14766;51.380;13.762;2022-12-18T16:22:08;21.67;;;10.00;;
27265;SDS011;14766;51.380;13.762;2022-12-18T16:24:49;21.60;;;9.68;;
27265;SDS011;14766;51.380;13.762;2022-12-18T16:27:18;23.42;;;10.60;;
27265;SDS011;14766;51.380;13.762;2022-12-18T16:29:45;22.88;;;10.50;;
27265;SDS011;14766;51.380;13.762;2022-12-18T16:32:19;19.10;;;8.65;;
27265;SDS011;14766;51.380;13.762;2022-12-18T16:34:49;20.35;;;9.55;;
27265;SDS011;14766;51.380;13.762;2022-12-18T16:37:17;19.55;;;9.35;;
27265;SDS011;14766;51.380;13.762;2022-12-18T16:39:44;21.45;;;8.63;;
27265;SDS011;14766;51.380;13.762;2022-12-18T16:44:43;21.25;;;9.15;;
27265;SDS011;14766;51.380;13.762;2022-12-18T16:47:12;20.02;;;9.55;;
27265;SDS011;14766;51.380;13.762;2022-12-18T16:49:40;20.90;;;9.35;;
27265;SDS011;14766;51.380;13.762;2022-12-18T16:52:08;26.42;;;11.02;;
27265;SDS011;14766;51.380;13.762;2022-12-18T16:54:35;26.90;;;11.75;;
27265;SDS011;14766;51.380;13.762;2022-12-18T16:57:05;26.10;;;12.35;;
27265;SDS011;14766;51.380;13.762;2022-12-18T16:59:32;34.65;;;16.60;;
27265;SDS011;14766;51.380;13.762;2022-12-18T17:01:59;29.73;;;14.75;;
27265;SDS011;14766;51.380;13.762;2022-12-18T17:04:33;37.47;;;16.52;;
27265;SDS011;14766;51.380;13.762;2022-12-18T17:07:00;32.03;;;14.25;;
27265;SDS011;14766;51.380;13.762;2022-12-18T17:09:27;27.08;;;12.50;;